Time;durP1;ratioP1;P1;durP2;ratioP2;P2;SDS_P1;SDS_P2;PMS_P1;PMS_P2;Temp;Humidity;BMP_temperature;BMP_pressure;BME280_temperature;BME280_humidity;BME280_pressure;Samples;Min_cycle;Max_cycle;Signal;HPM_P1;HPM_P2
2023/08/08 00:00:48;;;;;;;7.75;3.30;;;;;;;24.64;46.74;101149.88;5074235;28;20021;-47
2023/08/08 00:03:14;;;;;;;9.95;3.40;;;;;;;24.46;46.68;101151.47;5071886;28;20033;-48
2023/08/08 00:05:40;;;;;;;10.02;3.88;;;;;;;24.08;47.62;101146.94;5071922;28;20451;-49
2023/08/08 00:08:07;;;;;;;6.43;3.63;;;;;;;23.82;47.66;101147.19;5063970;28;20074;-49
2023/08/08 00:10:33;;;;;;;9.90;3.70;;;;;;;23.38;48.98;101148.06;5059418;28;20052;-56
2023/08/08 00:13:00;;;;;;;8.80;3.35;;;;;;;23.22;50.04;101154.72;5064384;28;20028;-50
2023/08/08 00:15:26;;;;;;;12.75;4.13;;;;;;;23.11;49.69;101137.59;5054383;28;20577;-56
2023/08/08 00:17:52;;;;;;;8.68;3.72;;;;;;;23.10;49.55;101141.41;5070994;28;20035;-57
2023/08/08 00:20:19;;;;;;;7.53;4.05;;;;;;;23.27;48.99;101141.03;5065286;28;20539;-44
2023/08/08 00:22:45;;;;;;;7.68;4.45;;;;;;;22.92;49.27;101142.88;5064237;28;20472;-42
2023/08/08 00:25:11;;;;;;;8.90;3.45;;;;;;;22.58;50.45;101148.19;5064033;28;20033;-42
2023/08/08 00:27:41;;;;;;;7.40;3.97;;;;;;;22.11;52.20;101148.59;5070655;28;20086;-41
2023/08/08 00:30:09;;;;;;;6.85;3.38;;;;;;;22.01;53.36;101132.22;5071435;28;20032;-42
2023/08/08 00:32:35;;;;;;;11.15;4.18;;;;;;;21.34;55.50;101134.97;5071932;28;20072;-45
2023/08/08 00:35:01;;;;;;;11.05;3.78;;;;;;;21.65;55.81;101124.06;5072943;28;20484;-43
2023/08/08 00:37:28;;;;;;;8.75;3.17;;;;;;;21.25;56.99;101124.84;5070366;28;20071;-49
2023/08/08 00:39:54;;;;;;;10.18;3.80;;;;;;;21.01;57.76;101117.19;5072432;28;20036;-50
2023/08/08 00:42:20;;;;;;;10.95;4.13;;;;;;;21.17;58.18;101117.22;5069195;28;20051;-50
2023/08/08 00:44:46;;;;;;;11.25;4.03;;;;;;;20.39;60.05;101119.94;5072863;28;21167;-51
2023/08/08 00:47:13;;;;;;;7.28;4.07;;;;;;;20.48;60.80;101129.22;5067374;28;20025;-51
2023/08/08 00:49:39;;;;;;;9.95;3.70;;;;;;;20.20;61.23;101120.34;5071243;28;20389;-46
2023/08/08 00:52:07;;;;;;;11.77;4.38;;;;;;;20.06;62.29;101135.50;5072338;28;20040;-46
2023/08/08 00:54:34;;;;;;;8.27;3.58;;;;;;;20.12;62.29;101131.75;5072702;28;20046;-48
2023/08/08 00:57:00;;;;;;;10.93;4.05;;;;;;;19.94;62.64;101127.56;5066929;28;20032;-44
2023/08/08 00:59:27;;;;;;;8.60;4.00;;;;;;;20.10;62.87;101127.63;5061394;28;20054;-45
2023/08/08 01:01:54;;;;;;;11.20;3.90;;;;;;;20.15;62.13;101116.78;5065266;28;20055;-45
2023/08/08 01:04:21;;;;;;;9.10;3.50;;;;;;;19.90;62.78;101114.75;5062548;28;20028;-46
2023/08/08 01:07:10;;;;;;;8.73;3.75;;;;;;;19.71;63.21;101122.47;5062594;28;20028;-47
2023/08/08 01:10:13;;;;;;;7.40;3.78;;;;;;;19.91;63.15;101116.38;5061161;28;20409;-53
2023/08/08 01:12:46;;;;;;;13.93;3.88;;;;;;;19.88;62.48;101122.34;5067272;28;20036;-52
2023/08/08 01:15:13;;;;;;;8.10;3.15;;;;;;;20.02;62.47;101104.50;5072197;28;20503;-50
2023/08/08 01:17:41;;;;;;;8.63;3.10;;;;;;;19.97;62.73;101120.75;5070027;28;20036;-54
2023/08/08 01:20:10;;;;;;;9.20;3.28;;;;;;;19.81;63.70;101116.31;5072823;28;20024;-51
2023/08/08 01:23:19;;;;;;;6.88;3.53;;;;;;;19.64;64.49;101128.13;5073497;28;20025;-52
2023/08/08 01:25:46;;;;;;;5.03;2.92;;;;;;;19.51;64.71;101125.81;5073117;28;20044;-52
2023/08/08 01:28:13;;;;;;;8.15;3.08;;;;;;;19.34;65.44;101119.72;5073435;28;20424;-51
2023/08/08 01:30:39;;;;;;;12.40;3.15;;;;;;;19.37;65.79;101127.31;5073163;28;20135;-52
2023/08/08 01:33:06;;;;;;;7.82;2.95;;;;;;;19.17;67.34;101123.34;5073237;28;20401;-53
2023/08/08 01:35:41;;;;;;;7.13;2.78;;;;;;;18.79;68.37;101137.84;5073567;28;20028;-50
2023/08/08 01:38:17;;;;;;;8.98;3.60;;;;;;;19.08;67.76;101137.63;5070123;28;20481;-56
2023/08/08 01:40:45;;;;;;;6.43;3.70;;;;;;;19.12;67.12;101142.28;5068173;28;20036;-53
2023/08/08 01:43:13;;;;;;;9.32;3.33;;;;;;;18.79;68.04;101132.44;5072359;28;20029;-52
2023/08/08 01:45:40;;;;;;;7.05;2.80;;;;;;;18.94;67.89;101135.31;5072804;28;20038;-52
2023/08/08 01:48:10;;;;;;;8.63;3.03;;;;;;;18.87;68.50;101128.44;5072862;28;20074;-52
2023/08/08 01:50:37;;;;;;;7.38;3.20;;;;;;;18.94;68.23;101127.19;5067826;28;20124;-52
2023/08/08 01:53:04;;;;;;;9.40;2.90;;;;;;;19.04;67.96;101128.34;5052957;28;20028;-49
2023/08/08 01:55:31;;;;;;;8.95;3.78;;;;;;;18.97;67.80;101133.97;5052930;28;20025;-52
2023/08/08 01:57:57;;;;;;;7.07;2.90;;;;;;;18.90;68.76;101126.03;5049587;28;20025;-52
2023/08/08 02:00:24;;;;;;;5.82;2.85;;;;;;;18.89;69.06;101139.88;5034123;28;20033;-55
2023/08/08 02:02:50;;;;;;;8.45;3.60;;;;;;;18.53;69.65;101133.97;5032667;28;20022;-49
2023/08/08 02:05:16;;;;;;;6.50;2.90;;;;;;;18.42;70.55;101133.00;5037471;28;20033;-53
2023/08/08 02:07:43;;;;;;;7.45;3.35;;;;;;;18.38;71.14;101136.50;5052014;28;20355;-53
2023/08/08 02:10:09;;;;;;;6.22;3.50;;;;;;;18.08;72.85;101140.41;5051817;28;20025;-56
2023/08/08 02:12:35;;;;;;;6.80;3.28;;;;;;;17.89;73.25;101147.97;5052441;28;20021;-54
2023/08/08 02:15:04;;;;;;;11.65;3.70;;;;;;;17.96;73.65;101138.84;5052380;28;20037;-50
2023/08/08 02:17:30;;;;;;;7.68;3.08;;;;;;;17.86;73.55;101142.22;5041825;28;20060;-52
2023/08/08 02:19:56;;;;;;;8.30;2.95;;;;;;;17.90;73.73;101135.25;5071816;28;20025;-53
2023/08/08 02:22:23;;;;;;;6.65;3.47;;;;;;;17.61;74.29;101137.19;5068303;28;20483;-54
2023/08/08 02:24:49;;;;;;;6.68;3.25;;;;;;;17.64;75.18;101145.63;5052166;28;20135;-54
2023/08/08 02:27:16;;;;;;;6.80;3.20;;;;;;;17.30;76.30;101147.47;5033761;28;20029;-56
2023/08/08 02:29:42;;;;;;;5.50;3.22;;;;;;;17.24;76.64;101136.81;5033443;28;20033;-58
2023/08/08 02:32:08;;;;;;;8.00;3.33;;;;;;;17.07;77.52;101134.06;5051974;28;20036;-55
2023/08/08 02:34:34;;;;;;;11.23;3.33;;;;;;;17.30;76.83;101141.25;5052085;28;20024;-54
2023/08/08 02:37:01;;;;;;;6.78;2.72;;;;;;;17.08;77.81;101128.41;5051472;28;20045;-56
2023/08/08 02:39:27;;;;;;;7.88;3.78;;;;;;;16.67;80.57;101136.78;5051487;28;20021;-57
2023/08/08 02:41:53;;;;;;;5.78;2.60;;;;;;;16.38;82.14;101128.63;5051333;28;20019;-54
2023/08/08 02:44:20;;;;;;;8.57;3.40;;;;;;;16.19;83.62;101125.22;5051193;28;20504;-56
2023/08/08 02:46:46;;;;;;;11.25;3.97;;;;;;;16.16;83.90;101132.94;5033927;28;20033;-61
2023/08/08 02:49:12;;;;;;;8.90;3.58;;;;;;;16.05;84.76;101134.63;5033526;28;20029;-55
2023/08/08 02:51:39;;;;;;;4.97;2.50;;;;;;;15.86;85.43;101131.19;5064660;28;20040;-57
2023/08/08 02:54:05;;;;;;;8.40;2.92;;;;;;;15.81;86.12;101123.78;5071300;28;20032;-66
2023/08/08 02:56:32;;;;;;;8.95;2.92;;;;;;;15.71;87.15;101122.72;5053711;28;20037;-57
2023/08/08 02:58:58;;;;;;;8.15;3.10;;;;;;;15.65;87.82;101127.19;5071038;28;20116;-56
2023/08/08 03:01:25;;;;;;;5.78;2.92;;;;;;;15.57;88.51;101128.31;5071292;28;20070;-56
2023/08/08 03:22:04;;;;;;;10.35;8.02;;;;;;;15.45;91.93;101118.56;5110793;27;20427;-57
2023/08/08 03:24:31;;;;;;;13.23;8.95;;;;;;;15.35;92.66;101112.91;5098276;27;20036;-56
2023/08/08 03:26:57;;;;;;;14.43;8.00;;;;;;;15.38;92.98;101115.97;5103665;28;20020;-56
2023/08/08 03:29:23;;;;;;;12.65;5.47;;;;;;;15.32;94.12;101120.41;5122330;28;20027;-56
2023/08/08 03:31:49;;;;;;;5.75;2.92;;;;;;;15.25;94.32;101133.16;5129810;27;20051;-56
2023/08/08 03:34:16;;;;;;;6.60;3.20;;;;;;;15.12;95.37;101122.56;5129819;27;20023;-56
2023/08/08 03:36:42;;;;;;;7.80;2.92;;;;;;;15.21;95.06;101123.91;5129804;27;20031;-56
2023/08/08 03:39:08;;;;;;;5.97;2.90;;;;;;;15.26;94.53;101128.59;5112225;28;20024;-56
2023/08/08 03:41:36;;;;;;;6.70;3.00;;;;;;;15.32;94.28;101131.22;5110351;28;20024;-56
2023/08/08 03:44:02;;;;;;;7.68;3.40;;;;;;;15.18;96.34;101134.31;5103833;28;20089;-56
2023/08/08 03:46:29;;;;;;;6.32;3.00;;;;;;;15.22;95.95;101130.13;5102141;28;20024;-57
2023/08/08 03:48:55;;;;;;;8.32;3.15;;;;;;;15.27;96.52;101132.94;5122252;28;20085;-57
2023/08/08 03:51:22;;;;;;;7.22;3.40;;;;;;;15.34;96.37;101133.66;5129323;27;20088;-57
2023/08/08 03:53:48;;;;;;;7.40;2.80;;;;;;;15.23;95.42;101137.16;5129511;27;20035;-57
2023/08/08 03:56:14;;;;;;;13.23;3.50;;;;;;;15.20;95.50;101142.97;5129663;27;20024;-57
2023/08/08 03:58:40;;;;;;;6.13;2.42;;;;;;;15.18;95.10;101148.63;5129446;27;20476;-57
2023/08/08 04:01:07;;;;;;;7.00;3.10;;;;;;;15.13;95.68;101145.78;5113127;27;20031;-57
2023/08/08 04:03:33;;;;;;;8.48;3.70;;;;;;;15.15;96.41;101161.72;5122316;28;20019;-57
2023/08/08 04:06:00;;;;;;;8.30;3.17;;;;;;;15.10;96.61;101162.41;5113980;27;20052;-56
2023/08/08 04:08:26;;;;;;;7.80;2.92;;;;;;;14.99;96.56;101163.16;5107984;28;20028;-56
2023/08/08 04:10:52;;;;;;;5.18;2.55;;;;;;;15.03;96.86;101162.50;5099340;28;20027;-57
2023/08/08 04:13:18;;;;;;;5.75;2.72;;;;;;;15.14;96.70;101171.69;5108819;28;20415;-56
2023/08/08 04:15:45;;;;;;;9.27;3.65;;;;;;;15.15;95.73;101167.13;5108700;28;20366;-56
2023/08/08 04:18:11;;;;;;;8.70;3.30;;;;;;;15.12;96.18;101173.81;5108441;28;20020;-57
2023/08/08 04:20:38;;;;;;;7.88;3.25;;;;;;;15.00;96.50;101179.13;5108686;28;20459;-57
2023/08/08 04:23:04;;;;;;;10.15;3.60;;;;;;;15.02;97.37;101176.22;5082505;28;20474;-57
2023/08/08 04:25:31;;;;;;;10.48;4.45;;;;;;;14.99;98.00;101182.03;5095037;28;20111;-56
2023/08/08 04:27:57;;;;;;;9.63;3.70;;;;;;;14.95;97.45;101184.38;5095372;28;20028;-56
2023/08/08 04:30:23;;;;;;;10.27;3.13;;;;;;;14.93;98.59;101177.56;5110176;28;20032;-57
2023/08/08 04:32:49;;;;;;;9.65;3.60;;;;;;;14.90;99.01;101184.25;5114971;28;20028;-56
2023/08/08 04:35:16;;;;;;;5.65;2.50;;;;;;;14.99;98.80;101187.44;5097033;28;20059;-56
2023/08/08 04:37:43;;;;;;;9.75;3.08;;;;;;;14.96;98.53;101183.34;5075945;28;20440;-56
2023/08/08 04:40:10;;;;;;;7.13;2.83;;;;;;;15.04;97.90;101183.00;5074779;28;20393;-57
2023/08/08 04:42:36;;;;;;;8.57;2.72;;;;;;;15.06;97.76;101190.88;5074322;28;20109;-57
2023/08/08 04:45:02;;;;;;;6.57;2.70;;;;;;;14.97;98.38;101195.75;5080157;28;20075;-57
2023/08/08 04:47:28;;;;;;;5.95;2.38;;;;;;;15.07;98.09;101194.41;5094570;28;20394;-57
2023/08/08 04:49:55;;;;;;;8.63;2.75;;;;;;;15.09;98.61;101186.91;5094227;28;20389;-57
2023/08/08 04:52:21;;;;;;;6.35;2.80;;;;;;;15.14;98.45;101184.34;5093812;28;20028;-57
2023/08/08 04:54:47;;;;;;;7.70;2.90;;;;;;;15.18;97.07;101178.28;5094299;28;20454;-56
2023/08/08 04:57:13;;;;;;;9.63;2.70;;;;;;;15.05;97.71;101183.84;5094737;28;20026;-57
2023/08/08 04:59:40;;;;;;;5.70;3.22;;;;;;;15.08;97.96;101185.25;5094044;28;20034;-56
2023/08/08 05:02:06;;;;;;;5.05;2.80;;;;;;;15.08;97.54;101178.00;5094011;28;20107;-56
2023/08/08 05:04:33;;;;;;;7.55;2.97;;;;;;;15.07;98.40;101186.31;5094146;28;20024;-56
2023/08/08 05:06:59;;;;;;;5.50;2.58;;;;;;;15.17;98.22;101192.00;5109648;28;20035;-56
2023/08/08 05:09:28;;;;;;;7.85;3.05;;;;;;;15.17;98.42;101183.91;5095594;27;20028;-56
2023/08/08 05:11:54;;;;;;;8.50;3.05;;;;;;;15.14;97.91;101198.66;5093780;28;20039;-56
2023/08/08 05:14:21;;;;;;;7.55;2.55;;;;;;;14.99;97.62;101199.06;5094084;28;20028;-57
2023/08/08 05:16:47;;;;;;;5.63;2.63;;;;;;;15.04;97.65;101199.19;5093856;28;20028;-56
2023/08/08 05:19:13;;;;;;;6.88;2.85;;;;;;;14.89;98.19;101201.47;5080656;28;20020;-57
2023/08/08 05:21:40;;;;;;;6.20;2.58;;;;;;;14.91;98.53;101198.53;5073093;28;20044;-57
2023/08/08 05:24:06;;;;;;;5.57;2.92;;;;;;;14.98;97.94;101194.69;5073329;28;20028;-57
2023/08/08 05:26:32;;;;;;;8.80;2.90;;;;;;;14.87;98.35;101190.06;5092944;28;20042;-57
2023/08/08 05:28:58;;;;;;;6.88;2.78;;;;;;;14.92;98.24;101197.47;5092736;28;20469;-56
2023/08/08 05:31:25;;;;;;;6.68;3.13;;;;;;;14.98;97.57;101183.91;5072008;28;20360;-57
2023/08/08 05:33:51;;;;;;;5.97;2.72;;;;;;;14.98;97.71;101194.69;5072004;28;20437;-56
2023/08/08 05:36:17;;;;;;;6.85;3.00;;;;;;;14.98;96.87;101189.31;5073335;28;20027;-57
2023/08/08 05:38:43;;;;;;;7.07;2.58;;;;;;;14.89;97.25;101200.66;5083169;28;20102;-56
2023/08/08 05:41:10;;;;;;;8.50;2.72;;;;;;;14.92;97.07;101190.22;5074533;28;20052;-56
2023/08/08 05:43:36;;;;;;;9.73;2.95;;;;;;;14.89;97.50;101193.38;5073404;28;20033;-56
2023/08/08 05:46:02;;;;;;;10.23;3.25;;;;;;;14.78;98.74;101186.88;5072850;28;20138;-56
2023/08/08 05:48:29;;;;;;;6.15;2.92;;;;;;;14.88;97.95;101191.75;5076026;28;20496;-56
2023/08/08 05:50:58;;;;;;;6.78;2.70;;;;;;;14.90;97.51;101192.31;5092589;28;20043;-57
2023/08/08 05:53:24;;;;;;;6.70;2.47;;;;;;;14.85;97.03;101188.66;5093006;28;20039;-56
2023/08/08 05:55:51;;;;;;;6.75;2.80;;;;;;;14.87;97.05;101191.94;5093088;28;20073;-56
2023/08/08 05:58:17;;;;;;;5.20;2.70;;;;;;;14.88;97.45;101197.13;5093031;28;20028;-56
2023/08/08 06:00:43;;;;;;;6.03;2.67;;;;;;;14.88;97.19;101190.88;5087230;28;20138;-57
2023/08/08 06:03:09;;;;;;;6.10;2.55;;;;;;;14.93;97.57;101194.56;5072691;28;20028;-57
2023/08/08 06:05:36;;;;;;;4.90;2.83;;;;;;;15.01;97.91;101183.47;5072641;28;20452;-56
2023/08/08 06:08:04;;;;;;;6.00;2.70;;;;;;;15.07;97.78;101181.75;5073867;28;20146;-56
2023/08/08 06:10:30;;;;;;;4.80;2.83;;;;;;;15.09;98.38;101185.03;5092843;28;20032;-56
2023/08/08 06:12:56;;;;;;;5.30;2.83;;;;;;;14.98;97.91;101189.31;5080563;28;20032;-56
2023/08/08 06:15:23;;;;;;;4.50;2.70;;;;;;;15.00;97.62;101198.00;5081863;28;20020;-56
2023/08/08 06:17:49;;;;;;;7.20;3.05;;;;;;;14.90;97.92;101195.03;5092551;28;20027;-56
2023/08/08 06:20:15;;;;;;;6.93;2.30;;;;;;;14.94;98.19;101190.00;5079360;28;20033;-56
2023/08/08 06:22:42;;;;;;;5.88;2.88;;;;;;;15.00;98.62;101187.22;5092437;28;20039;-56
2023/08/08 06:25:08;;;;;;;6.82;3.15;;;;;;;15.01;98.18;101191.56;5092742;28;20366;-56
2023/08/08 06:27:34;;;;;;;3.78;2.10;;;;;;;14.98;98.00;101194.69;5092712;28;20028;-56
2023/08/08 06:30:02;;;;;;;8.95;2.80;;;;;;;15.02;98.36;101189.69;5092539;28;20427;-57
2023/08/08 06:32:32;;;;;;;5.65;2.88;;;;;;;14.99;98.30;101193.66;5078794;28;20085;-57
2023/08/08 06:34:58;;;;;;;9.15;2.97;;;;;;;15.02;96.87;101201.28;5092758;28;20388;-56
2023/08/08 06:37:24;;;;;;;7.68;3.25;;;;;;;15.07;97.39;101200.63;5092196;28;20028;-56
2023/08/08 06:39:51;;;;;;;6.63;3.03;;;;;;;15.03;97.35;101202.09;5092436;28;20101;-57
2023/08/08 06:42:17;;;;;;;11.98;3.20;;;;;;;15.04;97.66;101204.56;5091857;28;20034;-57
2023/08/08 06:44:45;;;;;;;4.72;3.08;;;;;;;15.07;97.95;101199.78;5092382;28;20039;-57
2023/08/08 06:47:11;;;;;;;3.80;2.10;;;;;;;15.05;97.17;101222.41;5092299;28;20116;-54
2023/08/08 06:49:38;;;;;;;6.55;2.80;;;;;;;15.14;96.85;101214.00;5090851;28;20039;-57
2023/08/08 06:52:08;;;;;;;6.95;2.95;;;;;;;15.03;96.95;101215.59;5092020;28;20024;-58
2023/08/08 06:54:34;;;;;;;9.90;3.28;;;;;;;15.08;96.69;101220.31;5092059;28;20028;-57
2023/08/08 06:57:02;;;;;;;8.90;3.40;;;;;;;15.11;96.79;101219.88;5079787;28;20426;-57
2023/08/08 06:59:28;;;;;;;8.45;3.00;;;;;;;15.10;97.43;101221.72;5071578;28;20432;-57
2023/08/08 07:01:56;;;;;;;6.88;3.05;;;;;;;15.18;97.33;101221.41;5071468;28;20049;-57
2023/08/08 07:04:22;;;;;;;4.68;2.60;;;;;;;15.12;96.95;101226.91;5073206;28;20029;-57
2023/08/08 07:06:48;;;;;;;7.28;2.97;;;;;;;15.05;97.03;101222.41;5074918;28;20032;-57
2023/08/08 07:09:15;;;;;;;4.78;2.30;;;;;;;15.12;97.12;101221.50;5088309;28;20031;-56
2023/08/08 07:11:41;;;;;;;4.82;2.58;;;;;;;15.09;97.43;101230.03;5078618;28;20037;-57
2023/08/08 07:14:07;;;;;;;6.75;2.65;;;;;;;15.14;96.95;101239.09;5071550;28;20052;-57
2023/08/08 07:16:34;;;;;;;4.95;2.92;;;;;;;15.18;96.82;101237.59;5071873;28;20025;-57
2023/08/08 07:19:00;;;;;;;5.93;2.55;;;;;;;15.18;97.20;101226.00;5088746;28;20036;-57
2023/08/08 07:21:26;;;;;;;4.90;2.35;;;;;;;15.21;96.71;101230.91;5091345;28;20089;-57
2023/08/08 07:23:53;;;;;;;4.75;2.55;;;;;;;15.30;95.96;101224.16;5091677;28;20052;-57
2023/08/08 07:26:19;;;;;;;4.78;2.53;;;;;;;15.33;95.87;101226.44;5086106;28;20124;-57
2023/08/08 07:28:45;;;;;;;3.50;1.92;;;;;;;15.29;95.58;101222.53;5077076;28;20099;-56
2023/08/08 07:31:12;;;;;;;4.97;2.30;;;;;;;15.39;95.33;101217.41;5097354;28;20064;-54
2023/08/08 07:33:38;;;;;;;7.88;2.70;;;;;;;15.22;96.26;101211.00;5090023;28;20024;-55
2023/08/08 07:36:04;;;;;;;5.13;2.17;;;;;;;15.25;96.25;101213.25;5080890;28;20032;-55
2023/08/08 07:38:33;;;;;;;3.80;2.30;;;;;;;15.17;95.89;101217.09;5080402;28;20059;-55
2023/08/08 07:40:59;;;;;;;3.05;2.00;;;;;;;15.10;96.27;101220.91;5089840;28;20047;-56
2023/08/08 07:43:25;;;;;;;3.70;2.53;;;;;;;15.08;96.44;101226.53;5091500;28;20078;-55
2023/08/08 07:45:51;;;;;;;5.95;2.83;;;;;;;14.98;97.37;101237.00;5091441;28;20028;-55
2023/08/08 07:48:18;;;;;;;4.45;2.42;;;;;;;15.00;96.62;101235.75;5076774;28;20035;-56
2023/08/08 07:50:44;;;;;;;5.10;2.30;;;;;;;15.00;96.70;101234.94;5071259;28;20044;-56
2023/08/08 07:53:10;;;;;;;4.95;2.67;;;;;;;15.00;97.38;101235.75;5094426;28;20381;-55
2023/08/08 07:55:36;;;;;;;4.55;2.85;;;;;;;15.09;97.34;101227.34;5111805;28;20123;-55
2023/08/08 07:58:03;;;;;;;4.82;2.83;;;;;;;14.98;97.41;101235.13;5107446;28;20102;-55
2023/08/08 08:00:29;;;;;;;6.90;2.45;;;;;;;14.94;96.43;101225.88;5095258;28;20059;-56
2023/08/08 08:02:55;;;;;;;3.72;1.88;;;;;;;15.03;95.68;101226.38;5095380;28;20065;-56
2023/08/08 08:05:22;;;;;;;6.78;2.08;;;;;;;15.00;95.96;101226.84;5091123;28;20036;-55
2023/08/08 08:07:48;;;;;;;4.15;2.25;;;;;;;14.94;96.48;101236.66;5086152;28;20021;-56
2023/08/08 08:10:15;;;;;;;5.72;2.35;;;;;;;15.00;96.35;101233.06;5074240;28;20024;-56
2023/08/08 08:12:42;;;;;;;6.75;2.85;;;;;;;14.95;96.01;101230.22;5082590;28;20465;-56
2023/08/08 08:15:09;;;;;;;7.18;2.17;;;;;;;14.86;96.43;101223.47;5082081;28;20097;-56
2023/08/08 08:17:35;;;;;;;6.70;2.22;;;;;;;14.93;96.03;101228.78;5086705;28;20108;-56
2023/08/08 08:20:05;;;;;;;6.10;2.10;;;;;;;14.90;96.42;101227.38;5085298;28;20083;-56
2023/08/08 08:22:32;;;;;;;4.10;1.83;;;;;;;14.93;95.95;101226.06;5091959;28;20042;-56
2023/08/08 08:24:59;;;;;;;2.63;1.45;;;;;;;14.95;95.75;101229.38;5094752;28;20449;-56
2023/08/08 08:27:25;;;;;;;7.55;2.22;;;;;;;14.88;96.53;101234.88;5094623;28;20431;-56
2023/08/08 08:29:51;;;;;;;4.25;2.35;;;;;;;14.98;96.22;101226.22;5085648;28;20063;-56
2023/08/08 08:32:17;;;;;;;5.60;2.92;;;;;;;15.00;96.41;101224.97;5080130;28;20111;-56
2023/08/08 08:34:44;;;;;;;4.60;2.28;;;;;;;15.07;95.70;101229.44;5074025;28;20570;-56
2023/08/08 08:37:10;;;;;;;6.75;2.33;;;;;;;15.07;95.76;101224.06;5074328;28;20029;-55
2023/08/08 08:39:36;;;;;;;3.67;2.60;;;;;;;14.98;96.03;101223.53;5075037;28;20033;-55
2023/08/08 08:42:07;;;;;;;5.45;2.17;;;;;;;14.92;96.00;101217.16;5114818;28;20023;-56
2023/08/08 08:44:34;;;;;;;3.92;2.17;;;;;;;14.96;95.80;101210.28;5115264;28;20034;-56
2023/08/08 08:47:10;;;;;;;3.13;1.77;;;;;;;15.00;95.66;101218.75;5114878;28;20028;-55
2023/08/08 08:49:39;;;;;;;3.53;2.08;;;;;;;14.83;96.44;101215.03;5103254;28;20535;-56
2023/08/08 08:52:05;;;;;;;4.78;2.25;;;;;;;14.94;95.94;101206.19;5077939;28;20116;-56
2023/08/08 08:54:35;;;;;;;5.60;1.92;;;;;;;14.91;95.76;101206.63;5089801;28;20394;-55
2023/08/08 08:57:01;;;;;;;3.47;1.75;;;;;;;14.81;96.40;101217.09;5074237;28;20030;-55
2023/08/08 08:59:27;;;;;;;3.20;1.70;;;;;;;14.87;96.15;101208.94;5073901;28;20056;-56
2023/08/08 09:01:55;;;;;;;3.60;2.42;;;;;;;14.78;96.80;101211.13;5073800;28;20086;-56
2023/08/08 09:04:21;;;;;;;3.35;2.22;;;;;;;14.77;97.31;101208.66;5078083;28;20469;-56
2023/08/08 09:06:49;;;;;;;5.13;2.15;;;;;;;14.75;97.62;101216.13;5076800;28;20107;-56
2023/08/08 09:09:16;;;;;;;7.97;2.45;;;;;;;14.60;98.38;101215.66;5073825;28;20024;-56
2023/08/08 09:11:45;;;;;;;4.45;2.47;;;;;;;14.57;98.75;101206.16;5073220;28;20034;-56
2023/08/08 09:14:23;;;;;;;4.13;2.17;;;;;;;14.61;98.59;101220.03;5071902;28;20075;-56
2023/08/08 09:16:51;;;;;;;9.05;2.33;;;;;;;14.53;98.70;101211.16;5073826;28;20539;-56
2023/08/08 09:19:20;;;;;;;4.50;2.05;;;;;;;14.45;99.72;101214.13;5073137;28;20080;-56
2023/08/08 09:21:47;;;;;;;4.22;2.33;;;;;;;14.48;99.32;101219.09;5076290;28;20048;-56
2023/08/08 09:24:14;;;;;;;4.82;2.10;;;;;;;14.50;98.97;101213.50;5073071;28;20020;-56
2023/08/08 09:26:41;;;;;;;3.20;2.10;;;;;;;14.54;99.23;101217.38;5073500;28;20040;-55
2023/08/08 09:29:08;;;;;;;2.97;1.80;;;;;;;14.47;99.46;101222.00;5072995;28;20076;-55
2023/08/08 09:31:35;;;;;;;4.10;1.92;;;;;;;14.53;99.04;101211.16;5073220;28;20410;-55
2023/08/08 09:34:04;;;;;;;3.65;1.95;;;;;;;14.46;98.80;101217.66;5073406;28;20106;-55
2023/08/08 09:36:30;;;;;;;3.50;1.50;;;;;;;14.49;98.89;101214.53;5074257;28;20031;-56
2023/08/08 09:38:57;;;;;;;6.10;2.13;;;;;;;14.44;99.50;101223.25;5077178;28;20052;-55
2023/08/08 09:41:24;;;;;;;5.75;2.30;;;;;;;14.48;99.30;101218.28;5073013;28;20111;-56
2023/08/08 09:43:52;;;;;;;4.82;2.20;;;;;;;14.51;99.46;101220.53;5072690;28;20021;-55
2023/08/08 09:46:19;;;;;;;6.30;3.00;;;;;;;14.43;99.53;101224.28;5073353;28;20025;-56
2023/08/08 09:48:46;;;;;;;4.18;2.00;;;;;;;14.42;99.86;101214.56;5073120;28;20497;-56
2023/08/08 09:51:13;;;;;;;3.30;1.80;;;;;;;14.46;99.42;101217.66;5072699;28;20074;-56
2023/08/08 09:53:41;;;;;;;4.95;2.28;;;;;;;14.46;99.77;101225.72;5072784;28;20020;-56
2023/08/08 09:56:08;;;;;;;5.70;2.00;;;;;;;14.48;99.88;101215.56;5072704;28;20373;-56
2023/08/08 09:58:34;;;;;;;4.40;2.42;;;;;;;14.43;100.00;101212.69;5083043;28;20030;-55
2023/08/08 10:01:03;;;;;;;5.15;2.22;;;;;;;14.33;100.00;101209.72;5090055;28;20059;-55
2023/08/08 10:03:29;;;;;;;4.00;2.13;;;;;;;14.37;100.00;101211.72;5092857;28;20485;-55
2023/08/08 10:05:56;;;;;;;4.53;1.92;;;;;;;14.37;100.00;101211.72;5090302;28;20040;-56
2023/08/08 10:08:23;;;;;;;5.63;2.20;;;;;;;14.39;100.00;101217.72;5072091;28;20024;-56
2023/08/08 10:10:51;;;;;;;5.70;1.88;;;;;;;14.33;100.00;101213.22;5072705;28;20036;-56
2023/08/08 10:13:25;;;;;;;6.80;2.42;;;;;;;14.29;100.00;101214.69;5072944;28;20028;-56
2023/08/08 10:15:53;;;;;;;3.60;1.65;;;;;;;14.44;99.55;101217.88;5072464;28;20099;-56
2023/08/08 10:18:22;;;;;;;5.75;2.33;;;;;;;14.36;100.00;101203.88;5080224;28;20407;-56
2023/08/08 10:20:50;;;;;;;2.47;1.83;;;;;;;14.45;100.00;101205.22;5112191;28;20497;-56
2023/08/08 10:23:18;;;;;;;3.85;2.33;;;;;;;14.37;100.00;101205.50;5113156;28;20059;-56
2023/08/08 10:25:50;;;;;;;3.10;1.67;;;;;;;14.37;100.00;101198.25;5080826;28;20028;-55
2023/08/08 10:28:19;;;;;;;2.85;1.35;;;;;;;14.35;100.00;101196.84;5074516;28;20131;-56
2023/08/08 10:30:55;;;;;;;2.33;1.52;;;;;;;14.39;100.00;101208.81;5072367;28;20068;-56
2023/08/08 10:33:25;;;;;;;3.15;1.67;;;;;;;14.36;100.00;101207.38;5072243;28;20020;-55
2023/08/08 10:36:02;;;;;;;4.75;1.98;;;;;;;14.24;100.00;101199.22;5071401;28;20412;-55
2023/08/08 10:38:43;;;;;;;3.92;1.88;;;;;;;14.32;100.00;101197.25;5071942;28;20377;-55
2023/08/08 10:41:26;;;;;;;4.72;1.83;;;;;;;14.40;100.00;101205.06;5071385;28;20104;-55
2023/08/08 10:43:53;;;;;;;2.10;1.38;;;;;;;14.44;100.00;101203.59;5071818;28;20025;-56
2023/08/08 10:46:34;;;;;;;3.50;1.33;;;;;;;14.42;99.87;101201.09;5073175;28;20024;-55
2023/08/08 10:49:02;;;;;;;4.80;1.63;;;;;;;14.42;99.25;101203.78;5071928;28;20109;-56
2023/08/08 10:51:39;;;;;;;3.38;1.60;;;;;;;14.43;99.26;101202.75;5071449;28;20111;-56
2023/08/08 10:54:06;;;;;;;2.75;1.55;;;;;;;14.33;99.52;101207.84;5072448;28;20158;-56
2023/08/08 10:56:34;;;;;;;2.58;1.40;;;;;;;14.38;99.47;101207.16;5071944;28;20025;-56
2023/08/08 10:59:14;;;;;;;5.55;1.70;;;;;;;14.33;99.65;101207.00;5072257;28;20021;-56
2023/08/08 11:01:41;;;;;;;3.72;1.30;;;;;;;14.29;99.75;101206.63;5071785;28;20032;-56
2023/08/08 11:04:08;;;;;;;2.40;1.60;;;;;;;14.27;99.38;101198.78;5071729;28;20024;-56
2023/08/08 11:06:35;;;;;;;3.33;1.58;;;;;;;14.31;98.94;101204.53;5071936;28;20028;-55
2023/08/08 11:09:02;;;;;;;2.10;1.30;;;;;;;14.31;98.86;101203.69;5074444;28;20074;-55
2023/08/08 11:11:28;;;;;;;1.98;1.20;;;;;;;14.26;100.00;101201.66;5071092;28;20288;-55
2023/08/08 11:13:55;;;;;;;8.60;1.30;;;;;;;14.26;100.00;101191.72;5071740;28;20028;-55
2023/08/08 11:16:21;;;;;;;2.42;1.15;;;;;;;14.27;100.00;101190.69;5071503;28;20091;-55
2023/08/08 11:18:48;;;;;;;2.58;1.48;;;;;;;14.27;100.00;101187.19;5071780;28;20436;-55
2023/08/08 11:21:14;;;;;;;4.50;1.50;;;;;;;14.24;100.00;101193.81;5071256;28;20425;-55
2023/08/08 11:23:45;;;;;;;1.70;1.10;;;;;;;14.23;100.00;101202.13;5074958;28;20103;-55
2023/08/08 11:26:12;;;;;;;1.90;1.30;;;;;;;14.17;100.00;101192.25;5071441;28;20539;-55
2023/08/08 11:28:38;;;;;;;3.08;1.77;;;;;;;14.25;100.00;101197.34;5071922;28;20112;-56
2023/08/08 11:31:05;;;;;;;2.35;1.23;;;;;;;14.25;100.00;101191.94;5071163;28;20071;-56
2023/08/08 11:33:34;;;;;;;2.60;1.33;;;;;;;14.26;100.00;101199.78;5076584;28;20051;-55
2023/08/08 11:36:01;;;;;;;2.75;1.17;;;;;;;14.26;100.00;101193.59;5078006;28;20031;-56
2023/08/08 11:38:28;;;;;;;5.00;1.40;;;;;;;14.31;100.00;101193.75;5095059;28;20077;-56
2023/08/08 11:40:55;;;;;;;2.13;1.13;;;;;;;14.18;100.00;101194.72;5085954;28;20024;-55
2023/08/08 11:43:22;;;;;;;3.60;1.17;;;;;;;14.14;100.00;101198.88;5075350;28;20028;-56